Terminal Aerodrome Forecast
Issued by NWS Boston, MA

Home | Current Version | Previous Version | Text Only | Print | Product List | Glossary On
Versions: 1 2 3 4 5 6 7 8 9 10 11 12 13 14 15 16 17 18 19 20 21 22 23 24
000
FTUS41 KBOX 160828 AAB
TAFORH
TAF AMD
KORH 160828Z 1608/1706 31012G22KT P6SM BKN020 OVC030
     FM161000 31012G22KT P6SM SCT150
     FM161700 32015KT P6SM SKC
     FM162100 34009KT P6SM SKC
     FM170000 02005KT P6SM SKC=

USA.gov is the U.S. government's official web portal to all federal, state and local government web resources and services.